Time;durP1;ratioP1;P1;durP2;ratioP2;P2;SDS_P1;SDS_P2;PMS_P1;PMS_P2;Temp;Humidity;BMP_temperature;BMP_pressure;BME280_temperature;BME280_humidity;BME280_pressure;Samples;Min_cycle;Max_cycle;Signal;HPM_P1;HPM_P2
2023/05/15 00:02:24;;;;;;;9.35;5.43;;;11.10;99.90;;;;;;5001566;28;20437;-79
2023/05/15 00:04:50;;;;;;;8.75;5.32;;;11.10;99.90;;;;;;4998038;28;20054;-80
2023/05/15 00:07:15;;;;;;;7.00;4.93;;;11.00;99.90;;;;;;5000503;28;20457;-77
2023/05/15 00:09:41;;;;;;;7.75;5.40;;;11.00;99.90;;;;;;5000858;28;20130;-79
2023/05/15 00:12:07;;;;;;;8.98;5.80;;;11.00;99.90;;;;;;5003419;28;20033;-78
2023/05/15 00:14:33;;;;;;;8.27;5.60;;;11.00;99.90;;;;;;4990500;28;20023;-79
2023/05/15 00:16:58;;;;;;;8.15;5.00;;;10.90;99.90;;;;;;5002251;28;20125;-77
2023/05/15 00:19:24;;;;;;;7.50;5.35;;;10.90;99.90;;;;;;4998756;28;20030;-79
2023/05/15 00:21:49;;;;;;;7.50;4.63;;;10.90;99.90;;;;;;4999746;28;20022;-79
2023/05/15 00:24:21;;;;;;;8.32;5.57;;;10.80;99.90;;;;;;4998065;28;20077;-77
2023/05/15 00:26:47;;;;;;;7.68;5.15;;;10.80;99.90;;;;;;4996702;28;20033;-75
2023/05/15 00:29:13;;;;;;;9.27;5.22;;;10.80;99.90;;;;;;4990002;28;20031;-77
2023/05/15 00:31:38;;;;;;;6.55;4.90;;;10.80;99.90;;;;;;4993003;28;20015;-77
2023/05/15 00:34:04;;;;;;;8.20;4.70;;;10.80;99.90;;;;;;4993754;28;20046;-78
2023/05/15 00:36:30;;;;;;;8.15;5.57;;;10.80;99.90;;;;;;4995965;28;20396;-76
2023/05/15 00:38:56;;;;;;;7.28;4.97;;;10.80;99.90;;;;;;4996338;28;20117;-78
2023/05/15 00:41:23;;;;;;;8.98;4.90;;;10.70;99.90;;;;;;4998786;28;20018;-77
2023/05/15 00:43:50;;;;;;;7.88;5.50;;;10.70;99.90;;;;;;4994682;28;20033;-76
2023/05/15 00:46:18;;;;;;;9.85;4.88;;;10.70;99.90;;;;;;4993925;28;20084;-77
2023/05/15 00:48:44;;;;;;;7.55;4.80;;;10.70;99.90;;;;;;4996993;28;20069;-77
2023/05/15 00:51:16;;;;;;;5.82;5.00;;;10.60;99.90;;;;;;4998389;28;20026;-76
2023/05/15 00:53:51;;;;;;;8.65;5.30;;;10.60;99.90;;;;;;4995718;28;20083;-77
2023/05/15 00:56:17;;;;;;;9.25;6.07;;;10.50;99.90;;;;;;4996579;28;20022;-75
2023/05/15 00:58:45;;;;;;;8.18;5.00;;;10.50;99.90;;;;;;4993899;28;20030;-77
2023/05/15 01:01:15;;;;;;;7.10;5.38;;;10.50;99.90;;;;;;4994473;28;20026;-77
2023/05/15 01:03:41;;;;;;;10.20;5.53;;;10.50;99.90;;;;;;4996197;28;20022;-77
2023/05/15 01:06:12;;;;;;;9.55;5.50;;;10.50;99.90;;;;;;5002459;28;20049;-76
2023/05/15 01:08:46;;;;;;;8.95;5.70;;;10.40;99.90;;;;;;5002795;28;20037;-78
2023/05/15 01:11:13;;;;;;;8.75;5.10;;;10.40;99.90;;;;;;5001823;28;20076;-77
2023/05/15 01:13:43;;;;;;;8.07;5.32;;;10.40;99.90;;;;;;5002184;28;20022;-78
2023/05/15 01:16:14;;;;;;;6.75;5.10;;;10.40;99.90;;;;;;5008815;28;20038;-78
2023/05/15 01:18:40;;;;;;;10.98;5.22;;;10.40;99.90;;;;;;5009528;28;20030;-76
2023/05/15 01:21:34;;;;;;;6.60;5.00;;;10.40;99.90;;;;;;5011489;28;20425;-78
2023/05/15 01:24:20;;;;;;;9.93;5.90;;;10.40;99.90;;;;;;4998798;28;20053;-77
2023/05/15 01:27:24;;;;;;;12.43;5.35;;;10.40;99.90;;;;;;5001556;28;20077;-77
2023/05/15 01:30:06;;;;;;;7.82;5.47;;;10.40;99.90;;;;;;4999364;28;20732;-77
2023/05/15 01:32:41;;;;;;;8.18;5.45;;;10.50;99.90;;;;;;4997027;28;20038;-78
2023/05/15 01:35:10;;;;;;;8.45;5.45;;;10.50;99.90;;;;;;4998328;28;20078;-78
2023/05/15 01:38:01;;;;;;;7.35;5.07;;;10.50;99.90;;;;;;4998793;28;20037;-78
2023/05/15 01:40:28;;;;;;;11.15;5.47;;;10.50;99.90;;;;;;4999026;28;20026;-77
2023/05/15 01:42:55;;;;;;;8.52;5.10;;;10.60;99.90;;;;;;5005118;28;20019;-79
2023/05/15 01:45:25;;;;;;;6.88;5.13;;;10.50;99.90;;;;;;5002345;28;20022;-79
2023/05/15 01:47:52;;;;;;;7.75;4.95;;;10.60;99.90;;;;;;5011890;28;20034;-77
2023/05/15 01:50:20;;;;;;;9.57;5.85;;;10.60;99.90;;;;;;5002782;28;20030;-77
2023/05/15 01:52:52;;;;;;;5.75;4.50;;;10.60;99.90;;;;;;5006964;28;20030;-79
2023/05/15 01:55:20;;;;;;;6.97;4.85;;;10.60;99.90;;;;;;5000212;28;20023;-79
2023/05/15 01:57:50;;;;;;;7.90;5.13;;;10.60;99.90;;;;;;5010776;28;20026;-79
2023/05/15 02:00:17;;;;;;;7.10;4.78;;;10.60;99.90;;;;;;5012053;28;20041;-79
2023/05/15 02:02:44;;;;;;;8.10;5.10;;;10.60;99.90;;;;;;5003620;28;20053;-78
2023/05/15 02:05:13;;;;;;;8.00;4.80;;;10.70;99.90;;;;;;5013663;28;20452;-78
2023/05/15 02:07:44;;;;;;;7.88;5.05;;;10.70;99.90;;;;;;5014875;28;20040;-76
2023/05/15 02:10:17;;;;;;;7.22;5.05;;;10.70;99.90;;;;;;5006000;28;20033;-79
2023/05/15 02:12:46;;;;;;;7.38;5.07;;;10.70;99.90;;;;;;5017790;28;20037;-78
2023/05/15 02:15:17;;;;;;;7.07;4.97;;;10.70;99.90;;;;;;5003520;28;20026;-79
2023/05/15 02:17:43;;;;;;;8.80;5.53;;;10.80;99.90;;;;;;5003291;28;20034;-79
2023/05/15 02:20:09;;;;;;;7.60;5.47;;;10.80;99.90;;;;;;5004296;28;20057;-79
2023/05/15 02:22:40;;;;;;;10.05;6.15;;;10.80;99.90;;;;;;5004492;28;20022;-79
2023/05/15 02:25:06;;;;;;;8.23;5.60;;;10.80;99.90;;;;;;5005228;28;20072;-79
2023/05/15 02:27:48;;;;;;;9.07;6.28;;;10.80;99.90;;;;;;5001411;28;20038;-78
2023/05/15 02:30:19;;;;;;;12.82;6.93;;;10.80;99.90;;;;;;4998287;28;20082;-78
2023/05/15 02:32:51;;;;;;;9.40;6.07;;;10.80;99.90;;;;;;5003786;28;20034;-76
2023/05/15 02:35:49;;;;;;;10.40;6.22;;;10.80;99.90;;;;;;5014456;28;20035;-77
2023/05/15 02:38:48;;;;;;;11.40;5.78;;;10.80;99.90;;;;;;5000577;28;20039;-78
2023/05/15 02:41:18;;;;;;;7.32;5.13;;;10.80;99.90;;;;;;5002346;28;20542;-79
2023/05/15 02:43:51;;;;;;;7.10;5.32;;;10.80;99.90;;;;;;5013701;28;20076;-77
2023/05/15 02:46:18;;;;;;;6.03;4.78;;;10.80;99.90;;;;;;4988567;28;20026;-77
2023/05/15 02:48:44;;;;;;;8.70;5.60;;;10.80;99.90;;;;;;4993370;28;20084;-77
2023/05/15 02:51:10;;;;;;;8.38;5.38;;;10.80;99.90;;;;;;4993673;28;20125;-77
2023/05/15 02:53:40;;;;;;;7.47;5.68;;;10.80;99.90;;;;;;4992089;28;20543;-77
2023/05/15 02:56:08;;;;;;;8.77;5.78;;;10.80;99.90;;;;;;4992188;28;20110;-76
2023/05/15 02:58:34;;;;;;;8.80;5.40;;;10.80;99.90;;;;;;4989333;28;20022;-77
2023/05/15 03:01:00;;;;;;;8.82;6.05;;;10.80;99.90;;;;;;4990952;28;20465;-77
2023/05/15 03:03:26;;;;;;;8.93;5.75;;;10.80;99.90;;;;;;4990322;28;20033;-76
2023/05/15 03:05:51;;;;;;;9.05;5.57;;;10.80;99.90;;;;;;4990224;28;20054;-77
2023/05/15 03:08:20;;;;;;;7.68;5.38;;;10.80;99.90;;;;;;4991248;28;20101;-76
2023/05/15 03:10:46;;;;;;;8.35;4.85;;;10.80;99.90;;;;;;5008923;28;20032;-76
2023/05/15 03:13:14;;;;;;;9.25;5.90;;;10.80;99.90;;;;;;4991950;28;20026;-77
2023/05/15 03:15:43;;;;;;;8.63;5.32;;;10.70;99.90;;;;;;4992963;28;20030;-77
2023/05/15 03:18:09;;;;;;;7.50;4.97;;;10.70;99.90;;;;;;4993182;28;20596;-77
2023/05/15 03:20:34;;;;;;;7.03;5.15;;;10.70;99.90;;;;;;4995368;28;20105;-77
2023/05/15 03:23:06;;;;;;;9.80;5.40;;;10.70;99.90;;;;;;4993546;28;20022;-77
2023/05/15 03:25:31;;;;;;;7.50;5.07;;;10.70;99.90;;;;;;4993985;28;20097;-76
2023/05/15 03:27:57;;;;;;;6.78;5.03;;;10.70;99.90;;;;;;4993940;28;20160;-76
2023/05/15 03:30:29;;;;;;;8.80;5.38;;;10.70;99.90;;;;;;4992446;28;20034;-77
2023/05/15 03:32:56;;;;;;;7.72;5.32;;;10.70;99.90;;;;;;4991099;28;20121;-76
2023/05/15 03:35:25;;;;;;;8.32;5.28;;;10.70;99.90;;;;;;4993962;28;20023;-77
2023/05/15 03:37:51;;;;;;;9.07;5.20;;;10.60;99.90;;;;;;4991184;28;20054;-77
2023/05/15 03:40:20;;;;;;;7.95;5.28;;;10.50;99.90;;;;;;4995698;28;20132;-76
2023/05/15 03:42:45;;;;;;;8.23;5.32;;;10.50;99.90;;;;;;4994132;28;20050;-77
2023/05/15 03:45:11;;;;;;;5.95;4.57;;;10.50;99.90;;;;;;4990760;28;20054;-76
2023/05/15 03:47:37;;;;;;;8.23;5.65;;;10.50;99.90;;;;;;4995927;28;20117;-76
2023/05/15 03:50:02;;;;;;;8.35;5.80;;;10.50;99.90;;;;;;4994294;28;20030;-77
2023/05/15 03:52:28;;;;;;;10.27;5.15;;;10.50;99.90;;;;;;4995826;28;20030;-78
2023/05/15 03:54:54;;;;;;;8.82;5.93;;;10.60;99.90;;;;;;4991221;28;20114;-76
2023/05/15 03:57:22;;;;;;;9.73;5.25;;;10.60;99.90;;;;;;4995214;28;20022;-75
2023/05/15 03:59:51;;;;;;;10.55;6.07;;;10.60;99.90;;;;;;4990422;28;20079;-74
2023/05/15 04:02:20;;;;;;;8.23;5.40;;;10.60;99.90;;;;;;4992167;28;20022;-74
2023/05/15 04:04:48;;;;;;;8.65;6.00;;;10.60;99.90;;;;;;4988937;28;20029;-75
2023/05/15 04:07:17;;;;;;;9.80;6.13;;;10.60;99.90;;;;;;4989287;28;20394;-76
2023/05/15 04:09:43;;;;;;;11.45;6.38;;;10.60;99.90;;;;;;4990345;28;20030;-76
2023/05/15 04:12:14;;;;;;;7.75;5.63;;;10.60;99.90;;;;;;4997475;28;20033;-76
2023/05/15 04:14:42;;;;;;;11.18;5.70;;;10.60;99.90;;;;;;4990506;28;20459;-76
2023/05/15 04:17:08;;;;;;;8.65;6.45;;;10.60;99.90;;;;;;4992375;28;20071;-77
2023/05/15 04:19:34;;;;;;;7.22;5.20;;;10.70;99.90;;;;;;4995309;28;20374;-77
2023/05/15 04:22:03;;;;;;;9.32;5.10;;;10.60;99.90;;;;;;4990821;28;20085;-75
2023/05/15 04:24:28;;;;;;;9.68;5.82;;;10.70;99.90;;;;;;4994497;28;20033;-76
2023/05/15 04:26:54;;;;;;;10.15;5.40;;;10.70;99.90;;;;;;4990225;28;20018;-76
2023/05/15 04:29:20;;;;;;;10.20;5.97;;;10.70;99.90;;;;;;4989239;28;20030;-76
2023/05/15 04:31:46;;;;;;;7.10;5.68;;;10.70;99.90;;;;;;4992478;28;20608;-76
2023/05/15 04:34:17;;;;;;;8.05;5.75;;;10.70;99.90;;;;;;4990707;28;20042;-76
2023/05/15 04:36:43;;;;;;;10.65;5.70;;;10.80;99.90;;;;;;4984482;28;20038;-75
2023/05/15 04:39:11;;;;;;;8.90;6.05;;;10.80;99.90;;;;;;4988744;28;20036;-76
2023/05/15 04:41:37;;;;;;;8.70;5.55;;;10.80;99.90;;;;;;4984294;28;20037;-75
2023/05/15 04:44:03;;;;;;;8.50;5.57;;;10.90;99.90;;;;;;4987090;28;20026;-74
2023/05/15 04:46:28;;;;;;;8.20;5.82;;;10.90;99.90;;;;;;4990913;28;20051;-76
2023/05/15 04:48:57;;;;;;;8.55;4.78;;;10.90;99.90;;;;;;4986762;28;20034;-76
2023/05/15 04:51:22;;;;;;;7.25;5.35;;;10.90;99.90;;;;;;4971953;28;20540;-74
2023/05/15 04:53:48;;;;;;;8.95;5.93;;;10.90;99.90;;;;;;4969695;28;20027;-76
2023/05/15 04:56:20;;;;;;;8.90;5.50;;;10.90;99.90;;;;;;4968459;28;20086;-76
2023/05/15 04:58:46;;;;;;;11.65;5.25;;;11.00;99.90;;;;;;4968518;28;20026;-75
2023/05/15 05:01:11;;;;;;;7.35;5.68;;;11.00;99.90;;;;;;4984282;23;20583;-80
2023/05/15 05:03:37;;;;;;;7.88;5.45;;;11.00;99.90;;;;;;4964068;28;20023;-78
2023/05/15 05:06:09;;;;;;;9.27;5.47;;;11.10;99.90;;;;;;4975065;28;20377;-78
2023/05/15 05:08:40;;;;;;;7.82;5.57;;;11.10;99.90;;;;;;4982738;28;20054;-79
2023/05/15 05:11:06;;;;;;;9.30;5.63;;;11.10;99.90;;;;;;4973171;28;20029;-79
2023/05/15 05:13:32;;;;;;;8.63;5.10;;;11.10;99.90;;;;;;4977572;28;20034;-81
2023/05/15 05:16:04;;;;;;;7.35;5.28;;;11.20;99.90;;;;;;4976214;28;20026;-78
2023/05/15 05:18:33;;;;;;;11.40;5.28;;;11.20;99.90;;;;;;4974049;28;20027;-73
2023/05/15 05:21:00;;;;;;;8.30;5.70;;;11.30;99.90;;;;;;4973617;28;20023;-72
2023/05/15 05:23:29;;;;;;;9.85;5.43;;;11.30;99.90;;;;;;4974374;28;20026;-73
2023/05/15 05:25:55;;;;;;;9.18;5.50;;;11.30;99.90;;;;;;4975840;28;20084;-79
2023/05/15 05:28:21;;;;;;;7.55;5.05;;;11.30;99.90;;;;;;4978524;28;20026;-79
2023/05/15 05:30:47;;;;;;;8.35;5.80;;;11.40;99.90;;;;;;4975518;28;20031;-79
2023/05/15 05:33:22;;;;;;;9.27;6.00;;;11.50;99.90;;;;;;4979618;28;20019;-79
2023/05/15 05:35:47;;;;;;;11.77;5.82;;;11.50;99.90;;;;;;4975294;28;20030;-79
2023/05/15 05:38:16;;;;;;;11.00;6.40;;;11.50;99.90;;;;;;4971363;28;20370;-79
2023/05/15 05:40:45;;;;;;;8.57;5.45;;;11.60;99.90;;;;;;4975392;28;20077;-78
2023/05/15 05:43:13;;;;;;;7.68;5.05;;;11.60;99.90;;;;;;4975033;28;20026;-77
2023/05/15 05:45:39;;;;;;;10.88;6.32;;;11.70;99.90;;;;;;4971500;28;20696;-78
2023/05/15 05:48:08;;;;;;;9.77;5.80;;;11.70;99.90;;;;;;4976152;28;20011;-79
2023/05/15 05:50:36;;;;;;;7.35;5.38;;;11.80;99.90;;;;;;4982840;28;20102;-79
2023/05/15 05:53:02;;;;;;;7.95;5.22;;;11.90;99.90;;;;;;4974264;28;20031;-78
2023/05/15 05:55:30;;;;;;;9.07;5.35;;;11.90;99.90;;;;;;4974422;28;20022;-79
2023/05/15 05:57:56;;;;;;;9.63;5.28;;;12.00;99.90;;;;;;4974893;28;20046;-77
2023/05/15 06:00:23;;;;;;;6.82;5.25;;;12.00;99.90;;;;;;4971915;28;25082;-80
2023/05/15 06:02:54;;;;;;;4.93;4.07;;;12.00;99.90;;;;;;4987628;28;20031;-78
2023/05/15 06:05:22;;;;;;;7.07;5.22;;;12.10;99.90;;;;;;4980183;28;20053;-79
2023/05/15 06:07:52;;;;;;;10.23;5.38;;;12.20;99.90;;;;;;4975472;28;20038;-79
2023/05/15 06:10:19;;;;;;;8.68;4.88;;;12.20;99.90;;;;;;4971826;28;20033;-77
2023/05/15 06:12:45;;;;;;;8.60;4.20;;;12.30;99.90;;;;;;4976057;28;20030;-78
2023/05/15 06:15:14;;;;;;;6.43;4.63;;;12.30;99.90;;;;;;4971524;28;20036;-78
2023/05/15 06:17:40;;;;;;;7.43;4.55;;;12.40;99.90;;;;;;4975748;28;20099;-78
2023/05/15 06:20:09;;;;;;;5.88;4.45;;;12.40;99.90;;;;;;4974285;28;20058;-78
2023/05/15 06:22:35;;;;;;;5.28;4.25;;;12.50;99.90;;;;;;4973162;28;20031;-77
2023/05/15 06:25:05;;;;;;;7.85;5.28;;;12.60;99.90;;;;;;4981345;28;20023;-78
2023/05/15 06:27:32;;;;;;;7.97;5.03;;;12.60;99.90;;;;;;4978353;28;20106;-79
2023/05/15 06:29:58;;;;;;;6.18;4.38;;;12.70;99.90;;;;;;4982852;28;20433;-80
2023/05/15 06:32:24;;;;;;;6.03;4.38;;;12.80;99.90;;;;;;4976153;28;20083;-80
2023/05/15 06:34:50;;;;;;;8.60;5.30;;;12.80;99.90;;;;;;4987660;28;20046;-80
2023/05/15 06:37:16;;;;;;;7.43;4.75;;;12.80;99.90;;;;;;4981186;28;20126;-79
2023/05/15 06:39:41;;;;;;;10.40;5.13;;;12.90;99.90;;;;;;4978864;28;20065;-79
2023/05/15 06:42:07;;;;;;;10.93;5.55;;;12.90;99.90;;;;;;4981214;28;20027;-79
2023/05/15 06:44:33;;;;;;;7.65;5.00;;;13.00;99.90;;;;;;4963870;28;20028;-79
2023/05/15 06:46:59;;;;;;;9.23;4.85;;;13.10;99.90;;;;;;4980429;28;20465;-79
2023/05/15 06:49:27;;;;;;;8.23;5.07;;;13.10;99.90;;;;;;4977050;28;20027;-79
2023/05/15 06:52:03;;;;;;;6.72;4.40;;;13.20;99.90;;;;;;4981485;28;20138;-79
2023/05/15 06:54:28;;;;;;;7.00;4.72;;;13.30;99.90;;;;;;4980247;28;20063;-79
2023/05/15 06:56:54;;;;;;;7.75;4.70;;;13.30;99.90;;;;;;4984917;28;20019;-78
2023/05/15 06:59:20;;;;;;;7.60;4.65;;;13.40;99.90;;;;;;4976373;28;20069;-79
2023/05/15 07:01:48;;;;;;;7.68;5.18;;;13.40;99.90;;;;;;4977539;28;20123;-79
2023/05/15 07:04:14;;;;;;;6.60;5.00;;;13.40;99.90;;;;;;4980689;28;20425;-79
2023/05/15 07:06:40;;;;;;;6.22;4.75;;;13.50;99.90;;;;;;4981021;28;20035;-78
2023/05/15 07:09:05;;;;;;;7.22;4.72;;;13.50;99.90;;;;;;4979404;28;20026;-79
2023/05/15 07:11:36;;;;;;;5.25;4.30;;;13.50;99.90;;;;;;4976560;28;20520;-79
2023/05/15 07:14:02;;;;;;;6.82;4.55;;;13.60;99.90;;;;;;4980795;28;20046;-79
2023/05/15 07:16:31;;;;;;;6.40;4.88;;;13.60;99.90;;;;;;4977770;28;20035;-80
2023/05/15 07:18:57;;;;;;;6.32;5.00;;;13.60;99.90;;;;;;4974638;28;20053;-79
2023/05/15 07:21:26;;;;;;;6.55;5.20;;;13.70;99.90;;;;;;4975487;28;20022;-79
2023/05/15 07:23:51;;;;;;;8.90;4.90;;;13.70;99.90;;;;;;4978593;28;20053;-79
2023/05/15 07:26:17;;;;;;;7.10;4.47;;;13.80;99.90;;;;;;4977839;28;20090;-79
2023/05/15 07:28:42;;;;;;;6.80;4.35;;;13.80;99.90;;;;;;4982737;28;20031;-80
2023/05/15 07:31:11;;;;;;;7.35;4.45;;;13.90;99.90;;;;;;4977297;28;20046;-80
2023/05/15 07:33:39;;;;;;;7.13;4.90;;;14.00;99.90;;;;;;4977131;28;20035;-80
2023/05/15 07:36:05;;;;;;;7.97;4.63;;;14.00;99.90;;;;;;4979089;28;20038;-79
2023/05/15 07:38:31;;;;;;;6.05;4.20;;;14.10;99.90;;;;;;4978663;28;20031;-78
2023/05/15 07:40:59;;;;;;;8.73;5.10;;;14.10;99.90;;;;;;4975782;28;20027;-79
2023/05/15 07:43:31;;;;;;;6.20;4.88;;;14.10;99.90;;;;;;4981018;28;20031;-78
2023/05/15 07:45:59;;;;;;;8.60;5.10;;;14.10;99.90;;;;;;4982983;28;20038;-78
2023/05/15 07:48:25;;;;;;;10.95;5.25;;;14.10;99.90;;;;;;4979143;28;20022;-79
2023/05/15 07:50:52;;;;;;;6.43;4.72;;;14.20;99.90;;;;;;4979512;28;20053;-79
2023/05/15 07:53:21;;;;;;;7.07;4.57;;;14.20;99.90;;;;;;4982954;28;20062;-79
2023/05/15 07:55:46;;;;;;;7.57;4.78;;;14.30;99.90;;;;;;4981187;28;20045;-79
2023/05/15 07:58:12;;;;;;;8.85;5.35;;;14.30;99.90;;;;;;4985819;28;20030;-80
2023/05/15 08:00:38;;;;;;;7.82;6.03;;;14.30;99.90;;;;;;4981180;28;20046;-79
2023/05/15 08:03:03;;;;;;;6.53;4.80;;;14.40;99.90;;;;;;4981052;28;20535;-79
2023/05/15 08:05:29;;;;;;;7.20;4.97;;;14.40;99.90;;;;;;4974520;28;20025;-79
2023/05/15 08:07:55;;;;;;;7.00;4.82;;;14.50;99.90;;;;;;4995633;28;20350;-80
2023/05/15 08:10:21;;;;;;;8.10;5.40;;;14.50;99.90;;;;;;4983300;28;20030;-78
2023/05/15 08:12:47;;;;;;;6.07;4.68;;;14.60;99.90;;;;;;4979016;28;20140;-79
2023/05/15 08:15:13;;;;;;;7.68;4.60;;;14.60;99.90;;;;;;4980018;28;20082;-79
2023/05/15 08:17:40;;;;;;;7.93;5.32;;;14.60;99.90;;;;;;4976918;28;20107;-79
2023/05/15 08:20:06;;;;;;;7.65;4.90;;;14.70;99.90;;;;;;4980097;28;20331;-80
2023/05/15 08:22:32;;;;;;;7.70;6.07;;;14.70;99.90;;;;;;4980337;28;20019;-79
2023/05/15 08:24:58;;;;;;;8.00;5.60;;;14.80;99.90;;;;;;4980399;28;20026;-79
2023/05/15 08:27:24;;;;;;;6.25;5.13;;;14.90;99.90;;;;;;4978408;28;20035;-79
2023/05/15 08:29:51;;;;;;;7.47;5.20;;;14.90;99.90;;;;;;4978968;28;20089;-79
2023/05/15 08:32:23;;;;;;;5.90;4.50;;;15.00;99.90;;;;;;4978101;28;20548;-79
2023/05/15 08:34:51;;;;;;;8.90;5.35;;;15.10;99.90;;;;;;4980299;28;20393;-79
2023/05/15 08:37:26;;;;;;;6.43;4.70;;;15.20;99.90;;;;;;4978264;28;20098;-79
2023/05/15 08:39:52;;;;;;;7.72;5.15;;;15.40;99.90;;;;;;4975701;28;20031;-79
2023/05/15 08:42:27;;;;;;;5.43;4.38;;;15.40;99.90;;;;;;4980089;28;20041;-79
2023/05/15 08:44:55;;;;;;;5.47;4.15;;;15.50;99.90;;;;;;4982949;28;20046;-79
2023/05/15 08:47:22;;;;;;;7.57;4.20;;;15.60;99.90;;;;;;4980061;28;20035;-79
2023/05/15 08:49:54;;;;;;;6.68;4.22;;;15.60;99.90;;;;;;4983788;28;20060;-79
2023/05/15 08:52:20;;;;;;;8.75;4.50;;;15.60;99.90;;;;;;4973618;28;20035;-79
2023/05/15 08:54:46;;;;;;;6.07;3.92;;;15.60;99.90;;;;;;4997271;28;20031;-79
2023/05/15 08:57:13;;;;;;;5.53;4.07;;;15.80;99.90;;;;;;4975204;28;20031;-80
2023/05/15 08:59:39;;;;;;;6.55;4.53;;;15.90;99.90;;;;;;4979022;28;20512;-79
2023/05/15 09:02:05;;;;;;;6.55;3.63;;;16.00;99.90;;;;;;4977674;28;20038;-78
2023/05/15 09:04:31;;;;;;;5.10;4.00;;;16.20;99.90;;;;;;4974596;28;20023;-79
2023/05/15 09:06:59;;;;;;;5.75;4.10;;;16.30;99.90;;;;;;4975465;28;20081;-79
2023/05/15 09:09:29;;;;;;;5.03;3.75;;;16.40;99.90;;;;;;4979257;28;20087;-79
2023/05/15 09:11:55;;;;;;;4.70;3.67;;;16.50;99.90;;;;;;4973288;28;20033;-79
2023/05/15 09:14:21;;;;;;;6.03;3.75;;;16.60;99.90;;;;;;4974485;28;20106;-80
2023/05/15 09:16:49;;;;;;;10.35;3.97;;;16.60;99.90;;;;;;4973696;28;20026;-79
2023/05/15 09:19:17;;;;;;;7.63;4.55;;;16.60;99.90;;;;;;4974910;28;20050;-79
2023/05/15 09:21:43;;;;;;;7.40;4.82;;;16.60;99.90;;;;;;4974864;28;20027;-78
2023/05/15 09:24:16;;;;;;;5.05;3.92;;;16.60;99.90;;;;;;4980489;28;20134;-80
2023/05/15 09:26:44;;;;;;;5.28;4.50;;;16.70;99.90;;;;;;4972901;28;20595;-79
2023/05/15 09:29:16;;;;;;;5.50;4.60;;;16.70;99.90;;;;;;4991384;28;20045;-80
2023/05/15 09:31:44;;;;;;;5.95;3.97;;;16.60;99.90;;;;;;4976280;28;20098;-79
2023/05/15 09:34:10;;;;;;;5.25;3.63;;;16.70;99.90;;;;;;4983680;28;20073;-79
2023/05/15 09:36:42;;;;;;;6.93;4.30;;;16.70;99.90;;;;;;4975348;28;20478;-79
2023/05/15 09:39:08;;;;;;;5.35;4.25;;;16.80;99.90;;;;;;4974558;28;20034;-79
2023/05/15 09:41:34;;;;;;;6.10;4.07;;;16.90;99.90;;;;;;4979866;28;20019;-80
2023/05/15 09:43:59;;;;;;;5.28;3.58;;;16.90;99.90;;;;;;4976300;28;20018;-77
2023/05/15 09:46:28;;;;;;;3.83;3.30;;;17.00;99.90;;;;;;4977069;28;20026;-79
2023/05/15 09:48:54;;;;;;;4.95;3.88;;;17.00;99.90;;;;;;4975813;28;20621;-80
2023/05/15 09:51:23;;;;;;;4.47;3.35;;;17.10;99.90;;;;;;4977090;28;20062;-79
2023/05/15 09:53:51;;;;;;;4.80;3.55;;;17.10;99.90;;;;;;4975263;28;20417;-80
2023/05/15 09:56:17;;;;;;;4.70;3.50;;;17.20;99.90;;;;;;4973639;28;20473;-80
2023/05/15 09:58:59;;;;;;;4.38;3.40;;;17.30;99.90;;;;;;4971777;28;20062;-78
2023/05/15 10:01:26;;;;;;;4.43;3.50;;;17.30;99.90;;;;;;4979203;28;20035;-78
2023/05/15 10:03:59;;;;;;;5.97;3.97;;;17.30;99.90;;;;;;4980729;28;20035;-78
2023/05/15 10:06:25;;;;;;;5.53;3.17;;;17.30;99.90;;;;;;4977926;28;20018;-80
2023/05/15 10:08:52;;;;;;;6.97;4.10;;;17.20;99.90;;;;;;4986208;28;20033;-80
2023/05/15 10:11:49;;;;;;;4.97;4.03;;;17.20;99.90;;;;;;4986175;28;20084;-79
2023/05/15 10:14:17;;;;;;;5.15;3.90;;;17.20;99.90;;;;;;4982990;28;20509;-80
2023/05/15 10:16:44;;;;;;;5.13;4.10;;;17.20;99.90;;;;;;4984656;28;20629;-80
2023/05/15 10:19:13;;;;;;;3.83;3.28;;;17.10;99.90;;;;;;4986887;28;20027;-80
2023/05/15 10:21:40;;;;;;;4.95;3.65;;;17.10;99.90;;;;;;4984648;28;20030;-80
2023/05/15 10:24:07;;;;;;;4.55;3.80;;;17.10;99.90;;;;;;4977368;28;20028;-79
2023/05/15 10:26:37;;;;;;;8.45;4.35;;;17.10;99.90;;;;;;4976399;28;20137;-79
2023/05/15 10:29:13;;;;;;;4.25;3.53;;;17.10;99.90;;;;;;4975738;28;20026;-80
2023/05/15 10:31:40;;;;;;;7.50;4.05;;;17.10;99.90;;;;;;4978065;28;20061;-78
2023/05/15 10:34:07;;;;;;;4.40;2.08;;;17.10;99.90;;;;;;4981843;28;20027;-79
2023/05/15 10:36:34;;;;;;;5.70;1.75;;;17.00;99.90;;;;;;4978767;28;20132;-78
2023/05/15 10:39:02;;;;;;;4.25;2.42;;;16.90;99.90;;;;;;4976066;28;20019;-78
2023/05/15 10:41:29;;;;;;;4.20;2.30;;;16.60;99.90;;;;;;4973654;28;20027;-78
2023/05/15 10:44:01;;;;;;;5.63;2.42;;;16.40;99.90;;;;;;4978235;28;20022;-78
2023/05/15 10:46:31;;;;;;;2.90;1.83;;;16.20;99.90;;;;;;4974821;28;20441;-79
2023/05/15 10:49:03;;;;;;;2.10;1.33;;;15.90;99.90;;;;;;4977265;28;20058;-79
2023/05/15 10:51:32;;;;;;;2.78;1.08;;;15.70;99.90;;;;;;4974277;28;20033;-79
2023/05/15 10:54:00;;;;;;;3.17;1.30;;;15.50;99.90;;;;;;4977518;28;20038;-79
2023/05/15 10:56:37;;;;;;;4.07;1.40;;;15.50;99.90;;;;;;4985477;28;20014;-81
2023/05/15 10:59:07;;;;;;;3.28;1.80;;;15.40;99.90;;;;;;4980701;28;20034;-80
2023/05/15 11:01:38;;;;;;;13.45;1.65;;;15.40;99.90;;;;;;4973586;28;20027;-76
2023/05/15 11:04:08;;;;;;;4.53;1.83;;;15.40;99.90;;;;;;4968214;28;20027;-76
2023/05/15 11:06:35;;;;;;;4.82;2.60;;;15.40;99.90;;;;;;4975170;28;20030;-76
2023/05/15 11:09:25;;;;;;;3.92;2.55;;;15.40;99.90;;;;;;4971615;28;20049;-75
2023/05/15 11:11:50;;;;;;;2.80;1.85;;;15.50;99.90;;;;;;4967340;28;20464;-76
2023/05/15 11:14:16;;;;;;;3.97;1.52;;;15.60;99.90;;;;;;4963623;28;20113;-75
2023/05/15 11:16:54;;;;;;;3.85;1.65;;;15.60;99.90;;;;;;4975718;28;20058;-74
2023/05/15 11:19:34;;;;;;;3.53;1.83;;;15.70;99.90;;;;;;4970905;28;20023;-74
2023/05/15 11:22:18;;;;;;;2.53;1.55;;;15.80;99.90;;;;;;4970947;28;20417;-75
2023/05/15 11:25:07;;;;;;;9.32;2.45;;;15.90;99.90;;;;;;4968309;28;20134;-74
2023/05/15 11:27:42;;;;;;;2.42;1.50;;;16.00;99.90;;;;;;4969204;28;20031;-74
2023/05/15 11:30:25;;;;;;;2.40;1.13;;;16.10;99.90;;;;;;4972431;28;20035;-73
2023/05/15 11:32:58;;;;;;;3.33;1.35;;;16.20;99.90;;;;;;4967104;28;20038;-74
2023/05/15 11:35:59;;;;;;;1.33;0.93;;;16.20;99.90;;;;;;4972715;28;20031;-74
2023/05/15 11:38:25;;;;;;;2.35;1.38;;;16.20;99.90;;;;;;4934071;28;20057;-75
2023/05/15 11:40:57;;;;;;;3.45;1.98;;;16.20;99.90;;;;;;4960255;28;20045;-74
2023/05/15 11:43:23;;;;;;;2.85;1.63;;;16.30;99.90;;;;;;4965548;28;20037;-74
2023/05/15 11:46:09;;;;;;;3.80;1.50;;;16.30;99.90;;;;;;4967252;28;20042;-74
2023/05/15 11:48:41;;;;;;;3.88;2.17;;;16.40;99.90;;;;;;4965664;28;20035;-74
2023/05/15 11:51:17;;;;;;;3.67;2.45;;;16.50;99.90;;;;;;4965390;28;20069;-75
2023/05/15 11:53:43;;;;;;;4.30;2.75;;;16.60;99.90;;;;;;4964478;28;20027;-75
2023/05/15 11:56:17;;;;;;;5.75;3.20;;;16.60;99.90;;;;;;4966540;28;20391;-75
2023/05/15 11:58:42;;;;;;;3.63;2.10;;;16.70;99.90;;;;;;4969543;28;20101;-75
2023/05/15 12:01:10;;;;;;;3.78;2.15;;;16.80;99.90;;;;;;4968732;28;20031;-75
2023/05/15 12:03:35;;;;;;;2.65;2.28;;;17.00;99.90;;;;;;4966574;28;20031;-75
2023/05/15 12:06:02;;;;;;;3.17;2.20;;;17.00;99.90;;;;;;4968259;28;20401;-75
2023/05/15 12:08:32;;;;;;;5.20;2.30;;;17.10;99.90;;;;;;4968618;28;20039;-75
2023/05/15 12:10:59;;;;;;;4.07;2.70;;;17.20;99.90;;;;;;4965305;28;20027;-75
2023/05/15 12:13:25;;;;;;;3.42;2.47;;;17.20;99.90;;;;;;4967339;28;20035;-75
2023/05/15 12:15:50;;;;;;;4.28;1.92;;;17.30;99.90;;;;;;4963266;28;20511;-74
2023/05/15 12:18:20;;;;;;;2.83;2.30;;;17.30;99.90;;;;;;4964456;28;20047;-75
2023/05/15 12:20:46;;;;;;;2.63;2.15;;;17.30;99.90;;;;;;4965157;28;20031;-75
2023/05/15 12:23:15;;;;;;;5.93;2.40;;;17.30;99.90;;;;;;4957166;28;20022;-75
2023/05/15 12:25:42;;;;;;;2.72;2.05;;;17.40;99.90;;;;;;4964100;28;20023;-75
2023/05/15 12:28:08;;;;;;;3.03;2.30;;;17.40;99.90;;;;;;4962721;28;20038;-75
2023/05/15 12:30:34;;;;;;;3.22;2.10;;;17.40;99.90;;;;;;4967588;28;20027;-75
2023/05/15 12:33:03;;;;;;;5.20;2.80;;;17.40;99.90;;;;;;4960235;28;20504;-75
2023/05/15 12:35:29;;;;;;;4.43;2.50;;;17.50;99.90;;;;;;4964887;28;20035;-75
2023/05/15 12:37:55;;;;;;;4.45;2.30;;;17.50;99.90;;;;;;4960836;28;20497;-75
2023/05/15 12:40:21;;;;;;;3.42;2.70;;;17.60;99.90;;;;;;4965749;28;20117;-75
2023/05/15 12:42:52;;;;;;;2.78;2.30;;;17.60;99.90;;;;;;4963757;28;20074;-75
2023/05/15 12:45:20;;;;;;;2.95;2.40;;;17.70;99.90;;;;;;4963955;28;20027;-75
2023/05/15 12:47:48;;;;;;;5.25;2.45;;;17.80;99.90;;;;;;4963814;28;20063;-75
2023/05/15 12:50:23;;;;;;;6.28;2.38;;;17.80;99.90;;;;;;4962790;28;20031;-75
2023/05/15 12:52:53;;;;;;;2.70;2.47;;;17.90;99.90;;;;;;4968433;28;20512;-75
2023/05/15 12:55:31;;;;;;;5.47;2.75;;;18.00;99.90;;;;;;4961490;28;20031;-75